TimeEST,TemperatureF,Dew PointF,Humidity,Sea Level PressureIn,VisibilityMPH,Wind Direction,Wind SpeedMPH,Gust SpeedMPH,PrecipitationIn,Events,Conditions,WindDirDegrees,DateUTC
12:53 AM,43.0,36.0,76,29.83,10.0,SSE,10.4,-,N/A,,Overcast,160,2012-01-01 05:53:00
1:53 AM,44.1,36.0,73,29.79,10.0,SSE,10.4,-,N/A,,Overcast,150,2012-01-01 06:53:00
2:53 AM,46.0,36.0,68,29.76,10.0,SSE,8.1,-,N/A,,Mostly Cloudy,150,2012-01-01 07:53:00
4:53 AM,53.1,39.9,61,29.71,10.0,SSW,16.1,24.2,N/A,,Clear,210,2012-01-01 09:53:00
5:53 AM,53.1,42.1,66,29.70,10.0,SW,19.6,29.9,N/A,,Overcast,230,2012-01-01 10:53:00
6:53 AM,53.1,43.0,69,29.72,10.0,SW,16.1,21.9,N/A,,Overcast,230,2012-01-01 11:53:00
7:07 AM,53.6,42.8,67,29.72,10.0,WSW,16.1,32.2,N/A,,Overcast,250,2012-01-01 12:07:00
7:53 AM,50.0,41.0,71,29.77,10.0,West,17.3,34.5,N/A,,Overcast,260,2012-01-01 12:53:00
8:27 AM,44.6,35.6,71,29.82,10.0,WNW,18.4,33.4,N/A,,Overcast,290,2012-01-01 13:27:00
8:53 AM,43.0,34.0,71,29.86,10.0,West,21.9,36.8,N/A,,Overcast,280,2012-01-01 13:53:00
9:53 AM,41.0,36.0,82,29.91,6.0,West,16.1,28.8,0.00,Rain,Light Rain,270,2012-01-01 14:53:00
10:53 AM,41.0,33.1,73,29.94,10.0,West,19.6,27.6,0.00,,Overcast,280,2012-01-01 15:53:00
11:53 AM,39.9,33.1,77,29.98,10.0,WNW,13.8,28.8,N/A,,Overcast,290,2012-01-01 16:53:00
12:53 PM,39.9,30.9,70,30.00,10.0,West,19.6,33.4,N/A,,Overcast,280,2012-01-01 17:53:00
1:53 PM,42.1,28.9,60,30.01,10.0,West,18.4,29.9,N/A,,Mostly Cloudy,280,2012-01-01 18:53:00
2:53 PM,42.1,24.1,49,30.04,10.0,West,21.9,39.1,N/A,,Partly Cloudy,280,2012-01-01 19:53:00
3:53 PM,42.1,21.9,45,30.06,10.0,WNW,15.0,27.6,N/A,,Clear,290,2012-01-01 20:53:00
4:53 PM,41.0,16.0,36,30.09,10.0,West,15.0,33.4,N/A,,Clear,280,2012-01-01 21:53:00
5:53 PM,39.0,12.9,34,30.13,10.0,WNW,24.2,36.8,N/A,,Scattered Clouds,300,2012-01-01 22:53:00
6:53 PM,36.0,17.1,46,30.17,10.0,WNW,12.7,25.3,N/A,,Mostly Cloudy,300,2012-01-01 23:53:00
7:53 PM,35.1,16.0,46,30.20,10.0,WNW,11.5,26.5,N/A,,Partly Cloudy,290,2012-01-02 00:53:00
8:53 PM,33.1,17.1,52,30.21,10.0,WNW,13.8,19.6,N/A,,Clear,300,2012-01-02 01:53:00
9:53 PM,33.1,17.1,52,30.20,10.0,WNW,11.5,24.2,N/A,,Scattered Clouds,290,2012-01-02 02:53:00
10:53 PM,33.1,18.0,54,30.19,10.0,West,10.4,25.3,N/A,,Mostly Cloudy,280,2012-01-02 03:53:00
11:53 PM,32.0,19.0,59,30.19,10.0,WNW,18.4,27.6,N/A,,Overcast,290,2012-01-02 04:53:00